Time;durP1;ratioP1;P1;durP2;ratioP2;P2;SDS_P1;SDS_P2;PMS_P1;PMS_P2;Temp;Humidity;BMP_temperature;BMP_pressure;BME280_temperature;BME280_humidity;BME280_pressure;Samples;Min_cycle;Max_cycle;Signal;HPM_P1;HPM_P2
2023/01/13 00:00:34;;;;;;;7.10;4.83;;;;;;;2.93;100.00;96326.34;4951012;28;104819;-63
2023/01/13 00:03:02;;;;;;;5.30;4.80;;;;;;;2.94;100.00;96333.19;4952377;28;106110;-63
2023/01/13 00:05:29;;;;;;;6.33;5.20;;;;;;;3.02;100.00;96334.81;4950615;28;102004;-63
2023/01/13 00:07:56;;;;;;;5.07;4.57;;;;;;;2.99;100.00;96343.06;4951304;28;104730;-63
2023/01/13 00:10:23;;;;;;;5.60;5.07;;;;;;;2.95;100.00;96344.53;4949704;28;103991;-63
2023/01/13 00:12:52;;;;;;;6.33;5.10;;;;;;;3.01;100.00;96343.69;4953918;28;101900;-63
2023/01/13 00:15:19;;;;;;;5.83;5.23;;;;;;;3.01;100.00;96338.44;4949548;28;105077;-63
2023/01/13 00:17:47;;;;;;;5.53;4.90;;;;;;;2.98;100.00;96328.34;4950154;28;101896;-63
2023/01/13 00:20:14;;;;;;;6.57;5.63;;;;;;;3.00;100.00;96319.25;4950379;28;105638;-63
2023/01/13 00:22:42;;;;;;;6.23;5.63;;;;;;;3.08;100.00;96318.22;4949501;28;105078;-63
2023/01/13 00:25:10;;;;;;;6.63;5.43;;;;;;;3.12;100.00;96320.22;4952391;28;101863;-63
2023/01/13 00:27:36;;;;;;;5.83;5.23;;;;;;;3.12;100.00;96311.56;4950692;28;104766;-63
2023/01/13 00:30:07;;;;;;;6.13;5.53;;;;;;;3.12;100.00;96298.41;4950527;28;105461;-63
2023/01/13 00:32:34;;;;;;;6.03;5.37;;;;;;;3.09;100.00;96283.06;4952262;28;101947;-63
2023/01/13 00:35:01;;;;;;;6.07;5.40;;;;;;;3.10;100.00;96285.47;4953290;28;105061;-63
2023/01/13 00:37:28;;;;;;;6.00;5.17;;;;;;;3.08;100.00;96270.94;4951068;28;101861;-63
2023/01/13 00:39:56;;;;;;;5.50;4.83;;;;;;;3.07;100.00;96270.13;4950619;28;105521;-63
2023/01/13 00:45:10;;;;;;;5.00;4.50;;;;;;;3.01;100.00;96270.94;4952468;28;101913;-63
2023/01/13 00:47:38;;;;;;;4.60;4.20;;;;;;;3.05;100.00;96279.22;4950880;28;105296;-63
2023/01/13 00:50:05;;;;;;;5.30;4.80;;;;;;;3.07;100.00;96269.34;4950439;28;105438;-63
2023/01/13 00:52:33;;;;;;;4.63;4.23;;;;;;;3.08;100.00;96277.00;4951566;28;102070;-63
2023/01/13 00:55:00;;;;;;;5.00;4.20;;;;;;;3.09;100.00;96275.19;4951799;28;103751;-63
2023/01/13 00:57:27;;;;;;;6.07;5.10;;;;;;;3.16;100.00;96279.41;4954269;28;101915;-63
2023/01/13 00:59:54;;;;;;;4.97;4.47;;;;;;;3.20;100.00;96277.97;4951285;28;104948;-63
2023/01/13 01:02:22;;;;;;;6.23;5.07;;;;;;;3.18;100.00;96277.34;4950248;28;104278;-63
2023/01/13 01:04:49;;;;;;;5.00;4.50;;;;;;;3.14;100.00;96270.09;4951830;28;101842;-63
2023/01/13 01:07:16;;;;;;;4.70;4.20;;;;;;;3.04;100.00;96274.97;4951649;28;105175;-63
2023/01/13 01:09:43;;;;;;;5.73;4.60;;;;;;;3.00;100.00;96269.34;4951278;28;105120;-63
2023/01/13 01:12:11;;;;;;;4.83;4.30;;;;;;;3.01;100.00;96272.78;4955105;28;101864;-63
2023/01/13 01:14:39;;;;;;;4.67;4.23;;;;;;;3.02;100.00;96267.34;4955049;28;104851;-63
2023/01/13 01:17:06;;;;;;;5.00;4.50;;;;;;;3.01;100.00;96262.28;4957682;28;105320;-63
2023/01/13 01:19:36;;;;;;;4.90;4.50;;;;;;;3.02;100.00;96269.13;4956870;28;102603;-63
2023/01/13 01:22:04;;;;;;;4.60;4.20;;;;;;;3.00;100.00;96265.94;4954648;28;105153;-63
2023/01/13 01:24:31;;;;;;;5.53;4.97;;;;;;;3.04;100.00;96259.22;4955407;28;101914;-63
2023/01/13 01:26:58;;;;;;;5.00;4.50;;;;;;;3.07;100.00;96269.34;4955417;28;104857;-63
2023/01/13 01:29:26;;;;;;;5.80;5.20;;;;;;;3.01;100.00;96267.53;4953762;28;105378;-63
2023/01/13 01:31:53;;;;;;;5.50;5.00;;;;;;;2.97;100.00;96269.78;4954964;28;101825;-63
2023/01/13 01:34:20;;;;;;;5.43;4.93;;;;;;;3.00;100.00;96268.56;4954537;28;104903;-63
2023/01/13 01:36:48;;;;;;;5.67;5.00;;;;;;;2.96;100.00;96267.34;4953311;28;105071;-63
2023/01/13 01:39:15;;;;;;;5.43;4.93;;;;;;;3.04;100.00;96278.44;4957349;28;101931;-63
2023/01/13 01:43:58;;;;;;;5.50;5.00;;;;;;;2.99;100.00;96269.53;4954617;28;105406;-63
2023/01/13 01:44:57;;;;;;;4.97;4.27;;;;;;;2.99;100.00;96262.47;4954633;28;101821;-63
2023/01/13 01:47:27;;;;;;;5.40;4.73;;;;;;;3.02;100.00;96256.00;4956563;28;101643;-63
2023/01/13 01:49:57;;;;;;;4.77;4.30;;;;;;;3.07;100.00;96259.63;4938566;28;105216;-63
2023/01/13 01:52:30;;;;;;;5.00;4.50;;;;;;;3.16;100.00;96257.59;4954823;28;101884;-63
2023/01/13 01:55:02;;;;;;;4.73;4.00;;;;;;;3.14;100.00;96239.41;4955008;28;105038;-63
2023/01/13 01:57:36;;;;;;;4.63;4.13;;;;;;;3.16;100.00;96231.31;4954169;28;105430;-64
2023/01/13 02:00:05;;;;;;;4.80;4.40;;;;;;;3.16;100.00;96236.56;4955297;28;101861;-63
2023/01/13 02:02:39;;;;;;;4.73;4.30;;;;;;;3.18;100.00;96229.28;4956306;28;102205;-63
2023/01/13 02:05:07;;;;;;;4.97;4.57;;;;;;;3.16;100.00;96237.38;4956652;28;101748;-63
2023/01/13 02:07:38;;;;;;;4.97;4.47;;;;;;;3.19;100.00;96233.50;4971407;28;104776;-63
2023/01/13 02:10:08;;;;;;;5.10;4.60;;;;;;;3.17;100.00;96238.97;4954080;28;103753;-63
2023/01/13 02:12:36;;;;;;;4.40;4.00;;;;;;;3.19;100.00;96228.25;4954623;28;102228;-63
2023/01/13 02:15:07;;;;;;;4.97;4.47;;;;;;;3.21;100.00;96228.84;4956547;28;102513;-63
2023/01/13 02:17:59;;;;;;;4.57;4.10;;;;;;;3.21;100.00;96220.97;4954630;28;105055;-63
2023/01/13 02:20:42;;;;;;;5.03;4.40;;;;;;;3.22;100.00;96214.72;4956065;28;101897;-63
2023/01/13 02:26:57;;;;;;;4.80;4.30;;;;;;;3.24;100.00;96202.16;4958449;28;105219;-63
2023/01/13 02:32:59;;;;;;;5.30;4.23;;;;;;;3.20;100.00;96187.81;4955646;28;102754;-64
2023/01/13 02:35:33;;;;;;;4.30;3.90;;;;;;;3.21;100.00;96181.56;4953571;28;101813;-63
2023/01/13 02:38:02;;;;;;;4.33;3.90;;;;;;;3.14;100.00;96176.34;4954470;28;103572;-63
2023/01/13 02:40:36;;;;;;;4.70;4.20;;;;;;;3.19;100.00;96176.53;4954176;28;104127;-63
2023/01/13 02:46:00;;;;;;;4.00;3.67;;;;;;;3.27;100.00;96155.25;4955992;28;102849;-63
2023/01/13 02:48:31;;;;;;;5.07;3.90;;;;;;;3.46;100.00;96159.59;4954702;28;105615;-63
2023/01/13 02:51:03;;;;;;;4.20;3.80;;;;;;;3.54;100.00;96145.38;4959806;28;102134;-63
2023/01/13 02:53:34;;;;;;;6.03;4.10;;;;;;;3.54;100.00;96134.88;4953328;28;103680;-63
2023/01/13 02:56:04;;;;;;;4.10;3.67;;;;;;;3.57;100.00;96129.19;4939824;28;102382;-63
2023/01/13 02:58:34;;;;;;;5.43;3.50;;;;;;;3.64;100.00;96129.94;4950134;28;104818;-63
2023/01/13 03:01:03;;;;;;;4.83;3.97;;;;;;;3.62;100.00;96127.56;4933306;28;105210;-63
2023/01/13 03:03:33;;;;;;;4.20;3.80;;;;;;;3.61;100.00;96117.25;4934816;28;101794;-63
2023/01/13 03:06:12;;;;;;;5.07;3.80;;;;;;;3.61;100.00;96125.13;4937629;28;102357;-63
2023/01/13 03:08:46;;;;;;;4.20;3.80;;;;;;;3.64;100.00;96119.44;4933812;28;105807;-63
2023/01/13 03:11:16;;;;;;;4.17;3.63;;;;;;;3.64;100.00;96116.78;4939428;28;101730;-63
2023/01/13 03:13:55;;;;;;;3.90;3.13;;;;;;;3.66;100.00;96102.41;4950450;28;105347;-63
2023/01/13 03:16:30;;;;;;;3.90;3.50;;;;;;;3.72;100.00;96092.88;4951118;28;101860;-63
2023/01/13 03:19:10;;;;;;;3.73;3.43;;;;;;;3.79;100.00;96096.25;4936745;28;102392;-63
2023/01/13 03:21:45;;;;;;;3.80;3.50;;;;;;;3.84;100.00;96093.78;4935200;28;105623;-63
2023/01/13 03:24:17;;;;;;;3.50;3.20;;;;;;;3.85;100.00;96092.75;4935843;28;102183;-63
2023/01/13 03:26:50;;;;;;;3.20;2.90;;;;;;;4.00;100.00;96094.06;4936260;28;102013;-63
2023/01/13 03:29:22;;;;;;;3.10;2.90;;;;;;;4.02;100.00;96099.06;4934909;28;102591;-63
2023/01/13 03:31:58;;;;;;;3.23;2.67;;;;;;;4.06;100.00;96095.00;4934535;28;102063;-63
2023/01/13 03:34:31;;;;;;;2.97;2.70;;;;;;;4.08;100.00;96091.13;4953488;28;103710;-63
2023/01/13 03:37:06;;;;;;;2.73;2.40;;;;;;;4.11;100.00;96087.25;4974796;28;101706;-63
2023/01/13 03:39:36;;;;;;;2.80;2.60;;;;;;;4.10;100.00;96090.91;4956655;28;103822;-63
2023/01/13 03:42:08;;;;;;;3.07;2.77;;;;;;;4.06;100.00;96095.00;4957984;28;105279;-63
2023/01/13 03:44:40;;;;;;;2.93;2.70;;;;;;;4.05;100.00;96090.75;4956552;28;101906;-63
2023/01/13 03:47:21;;;;;;;3.13;2.83;;;;;;;4.01;100.00;96093.03;4974219;28;102389;-63
2023/01/13 03:49:56;;;;;;;2.80;2.60;;;;;;;3.97;100.00;96091.84;4955985;28;104078;-63
2023/01/13 03:52:26;;;;;;;2.50;2.30;;;;;;;3.95;100.00;96082.56;4974373;28;101746;-63
2023/01/13 03:54:58;;;;;;;2.80;2.50;;;;;;;3.93;100.00;96087.25;4938691;28;105933;-63
2023/01/13 03:57:31;;;;;;;2.60;2.40;;;;;;;3.97;100.00;96080.50;4959264;28;104804;-63
2023/01/13 04:00:02;;;;;;;2.67;2.47;;;;;;;4.09;100.00;96074.31;4957188;28;104765;-63
2023/01/13 04:02:49;;;;;;;2.60;2.40;;;;;;;4.05;100.00;96080.25;4970950;28;102265;-63
2023/01/13 04:05:18;;;;;;;2.50;2.30;;;;;;;4.19;100.00;96072.00;4974126;28;102051;-63
2023/01/13 04:07:52;;;;;;;2.27;2.03;;;;;;;4.35;100.00;96070.59;4957221;28;104883;-63
2023/01/13 04:10:26;;;;;;;2.03;1.93;;;;;;;4.36;100.00;96069.59;4955658;28;106817;-63
2023/01/13 04:13:01;;;;;;;2.00;1.90;;;;;;;4.35;100.00;96081.13;4956403;28;101951;-63
2023/01/13 04:15:30;;;;;;;2.27;2.07;;;;;;;4.42;100.00;96085.31;4956247;28;103834;-63
2023/01/13 04:18:12;;;;;;;2.50;2.17;;;;;;;4.47;100.00;96089.94;4955957;28;103863;-63
2023/01/13 04:20:40;;;;;;;2.33;2.13;;;;;;;4.45;100.00;96086.69;4959575;28;101830;-63
2023/01/13 04:23:09;;;;;;;2.20;2.10;;;;;;;4.44;100.00;96091.16;4954119;28;104690;-63
2023/01/13 04:25:36;;;;;;;2.30;2.20;;;;;;;4.52;100.00;96082.16;4957258;28;101870;-63
2023/01/13 04:28:04;;;;;;;2.57;2.27;;;;;;;4.45;100.00;96084.06;4957655;28;104079;-63
2023/01/13 04:30:32;;;;;;;2.20;2.00;;;;;;;4.51;100.00;96085.81;4956214;28;104965;-63
2023/01/13 04:33:00;;;;;;;2.13;1.90;;;;;;;4.62;100.00;96092.97;4955818;28;101906;-63
2023/01/13 04:35:28;;;;;;;2.30;2.10;;;;;;;4.65;100.00;96084.66;4955519;28;105039;-63
2023/01/13 04:37:56;;;;;;;3.53;2.00;;;;;;;4.60;100.00;96084.50;4955755;28;104979;-63
2023/01/13 04:40:23;;;;;;;2.00;1.83;;;;;;;4.56;100.00;96078.88;4956761;28;101830;-63
2023/01/13 04:42:51;;;;;;;2.53;2.33;;;;;;;4.54;100.00;96093.28;4958885;28;105034;-63
2023/01/13 04:45:18;;;;;;;3.43;2.23;;;;;;;4.52;100.00;96093.50;4954805;28;101802;-63
2023/01/13 04:47:45;;;;;;;2.40;2.20;;;;;;;4.47;100.00;96095.19;4974296;28;102515;-63
2023/01/13 04:50:12;;;;;;;2.70;2.50;;;;;;;4.54;100.00;96082.75;4954855;28;105570;-63
2023/01/13 04:52:42;;;;;;;3.80;2.47;;;;;;;4.50;100.00;96092.09;4956500;28;102245;-63
2023/01/13 04:55:10;;;;;;;2.60;2.40;;;;;;;4.48;100.00;96091.53;4955941;28;104639;-63
2023/01/13 04:57:38;;;;;;;2.70;2.50;;;;;;;4.58;100.00;96102.38;4954647;28;105470;-63
2023/01/13 05:00:06;;;;;;;2.87;2.57;;;;;;;4.57;100.00;96090.19;4954821;28;102020;-63
2023/01/13 05:02:33;;;;;;;2.73;2.53;;;;;;;4.53;100.00;96099.59;4955538;28;105268;-63
2023/01/13 05:05:00;;;;;;;3.43;3.00;;;;;;;4.53;100.00;96073.25;4958159;28;105322;-63
2023/01/13 05:07:27;;;;;;;2.50;2.30;;;;;;;4.46;100.00;96081.22;4955047;28;103775;-63
2023/01/13 05:09:55;;;;;;;2.30;2.10;;;;;;;4.44;100.00;96090.34;4954275;28;105619;-63
2023/01/13 05:17:53;;;;;;;2.60;2.40;;;;;;;4.37;100.00;96068.56;4954658;28;105300;-63
2023/01/13 05:20:20;;;;;;;2.60;2.40;;;;;;;4.37;100.00;96063.31;4955746;28;102035;-63
2023/01/13 05:25:38;;;;;;;2.73;2.30;;;;;;;4.31;100.00;96059.72;4957019;28;105401;-63
2023/01/13 05:28:06;;;;;;;3.00;2.70;;;;;;;4.24;100.00;96064.25;4952940;28;104178;-63
2023/01/13 05:30:36;;;;;;;2.90;2.70;;;;;;;4.20;100.00;96059.66;4952133;28;105216;-63
2023/01/13 05:33:03;;;;;;;3.33;2.53;;;;;;;4.18;100.00;96066.94;4970632;28;102220;-63
2023/01/13 05:35:30;;;;;;;2.40;2.20;;;;;;;4.29;100.00;96060.94;4972967;28;102694;-63
2023/01/13 05:37:57;;;;;;;2.53;2.33;;;;;;;4.31;100.00;96058.94;4952274;28;104315;-63
2023/01/13 05:43:23;;;;;;;3.60;2.20;;;;;;;4.36;100.00;96051.19;4952139;28;105748;-63
2023/01/13 05:45:55;;;;;;;9.13;7.50;;;;;;;4.37;100.00;96052.78;4952287;28;103945;-63
2023/01/13 05:48:25;;;;;;;11.20;6.60;;;;;;;4.42;100.00;96056.34;4955557;28;101873;-63
2023/01/13 05:50:52;;;;;;;14.10;8.10;;;;;;;4.43;100.00;96047.41;4951677;28;106604;-63
2023/01/13 05:53:20;;;;;;;8.53;5.33;;;;;;;4.44;100.00;96050.88;4951912;28;101953;-63
2023/01/13 05:55:48;;;;;;;10.87;6.97;;;;;;;4.48;100.00;96055.47;4970891;28;102299;-63
2023/01/13 05:58:18;;;;;;;5.17;4.03;;;;;;;4.53;100.00;96050.34;4954786;28;105340;-63
2023/01/13 06:00:45;;;;;;;4.17;3.30;;;;;;;4.50;100.00;96063.16;4955574;28;102005;-63
2023/01/13 06:03:12;;;;;;;2.37;2.17;;;;;;;4.57;100.00;96048.06;4955382;28;105815;-63
2023/01/13 06:05:39;;;;;;;4.10;2.90;;;;;;;4.61;100.00;96046.59;4954634;28;105437;-63
2023/01/13 06:08:07;;;;;;;3.17;2.83;;;;;;;4.61;100.00;96047.44;4955384;28;101978;-63
2023/01/13 06:10:36;;;;;;;3.40;2.40;;;;;;;4.66;100.00;96038.84;4957952;28;105226;-63
2023/01/13 06:13:03;;;;;;;6.87;5.53;;;;;;;4.68;100.00;96055.22;4955348;28;101800;-64
2023/01/13 06:15:32;;;;;;;5.33;3.90;;;;;;;4.73;100.00;96058.00;4955045;28;104062;-64
2023/01/13 06:17:58;;;;;;;3.30;2.37;;;;;;;4.75;100.00;96056.75;4954592;28;105488;-64
2023/01/13 06:20:25;;;;;;;6.70;4.10;;;;;;;4.73;100.00;96048.28;4955160;28;101937;-64
2023/01/13 06:22:54;;;;;;;5.97;4.17;;;;;;;4.74;100.00;96047.25;4955092;28;105055;-64
2023/01/13 06:25:33;;;;;;;11.87;7.90;;;;;;;4.81;100.00;96041.91;4954579;28;104265;-64
2023/01/13 06:28:00;;;;;;;11.40;7.10;;;;;;;4.80;100.00;96037.66;4938936;28;101841;-64
2023/01/13 06:30:29;;;;;;;2.37;2.00;;;;;;;4.83;100.00;96043.28;4955073;28;105368;-64
2023/01/13 06:33:03;;;;;;;2.40;2.20;;;;;;;4.86;100.00;96037.56;4957769;28;103888;-64
2023/01/13 06:35:34;;;;;;;1.90;1.80;;;;;;;4.96;100.00;96039.69;4954563;28;105694;-64
2023/01/13 06:38:04;;;;;;;5.57;3.77;;;;;;;4.89;100.00;96042.41;4954075;28;105804;-64
2023/01/13 06:40:31;;;;;;;2.90;2.60;;;;;;;4.97;100.00;96036.78;4972312;28;101820;-64
2023/01/13 06:43:16;;;;;;;3.40;3.13;;;;;;;5.13;100.00;96038.81;4954549;28;103634;-64
2023/01/13 06:45:47;;;;;;;17.47;13.17;;;;;;;5.10;100.00;96038.44;4954110;28;103746;-63
2023/01/13 06:48:17;;;;;;;2.23;2.03;;;;;;;5.14;100.00;96040.41;4953927;28;101833;-63
2023/01/13 06:50:44;;;;;;;3.07;2.50;;;;;;;5.19;100.00;96047.66;4954683;28;105440;-63
2023/01/13 06:53:11;;;;;;;2.77;2.53;;;;;;;5.16;100.00;96048.09;4954115;28;105130;-63
2023/01/13 06:55:38;;;;;;;3.10;2.87;;;;;;;5.13;100.00;96045.91;4958076;28;101880;-63
2023/01/13 06:58:05;;;;;;;5.43;4.87;;;;;;;5.13;100.00;96054.63;4954050;28;105013;-63
2023/01/13 07:00:35;;;;;;;6.77;4.93;;;;;;;5.20;100.00;96054.53;4954829;28;102039;-63
2023/01/13 07:03:10;;;;;;;4.40;3.53;;;;;;;5.19;100.00;96053.72;4970679;28;105106;-63
2023/01/13 07:05:39;;;;;;;6.47;5.70;;;;;;;5.19;100.00;96050.28;4954136;28;104016;-63
2023/01/13 07:08:06;;;;;;;3.03;2.83;;;;;;;5.17;100.00;96049.69;4953585;28;102015;-63
2023/01/13 07:10:33;;;;;;;7.83;5.90;;;;;;;5.21;100.00;96045.59;4954326;28;105055;-63
2023/01/13 07:15:55;;;;;;;9.23;6.37;;;;;;;5.19;100.00;96042.38;4954168;28;102437;-63
2023/01/13 07:18:22;;;;;;;4.37;3.83;;;;;;;5.15;100.00;96038.59;4957122;28;104981;-63
2023/01/13 07:21:05;;;;;;;4.03;3.00;;;;;;;5.18;100.00;96040.78;4953769;28;101883;-63
2023/01/13 07:23:33;;;;;;;2.57;2.37;;;;;;;5.18;100.00;96043.41;4954094;28;103525;-63
2023/01/13 07:26:01;;;;;;;2.60;2.40;;;;;;;5.16;100.00;96048.09;4953812;28;101869;-64
2023/01/13 07:28:29;;;;;;;3.53;3.23;;;;;;;5.14;100.00;96044.88;4954249;28;102066;-63
2023/01/13 07:30:56;;;;;;;3.40;3.10;;;;;;;5.18;100.00;96046.84;4954286;28;104842;-63
2023/01/13 07:33:23;;;;;;;3.20;2.90;;;;;;;5.18;100.00;96061.88;4971012;28;102549;-63
2023/01/13 07:35:58;;;;;;;3.77;3.43;;;;;;;5.00;100.00;96051.34;4953678;28;102049;-63
2023/01/13 07:38:25;;;;;;;5.00;3.70;;;;;;;4.95;100.00;96059.94;4957000;28;105056;-63
2023/01/13 07:40:53;;;;;;;5.13;3.97;;;;;;;4.80;100.00;96064.00;4953612;28;101966;-63
2023/01/13 07:43:31;;;;;;;3.90;3.50;;;;;;;4.69;100.00;96060.28;4953929;28;104155;-63
2023/01/13 07:45:59;;;;;;;4.63;3.57;;;;;;;4.64;100.00;96072.50;4953340;28;105427;-63
2023/01/13 07:48:27;;;;;;;5.10;4.10;;;;;;;4.67;100.00;96070.22;4970430;28;101850;-63
2023/01/13 07:50:53;;;;;;;3.60;3.30;;;;;;;4.63;100.00;96058.53;4971280;28;102526;-63
2023/01/13 07:53:24;;;;;;;5.23;3.80;;;;;;;4.50;100.00;96076.31;4953085;28;105014;-63
2023/01/13 07:55:55;;;;;;;5.53;3.60;;;;;;;4.44;100.00;96078.00;4954038;28;102398;-63
2023/01/13 07:58:22;;;;;;;5.53;4.20;;;;;;;4.33;100.00;96091.09;4971620;28;102280;-63
2023/01/13 08:00:49;;;;;;;5.17;4.47;;;;;;;4.42;100.00;96079.25;4972879;28;104218;-63
2023/01/13 08:03:17;;;;;;;5.00;3.90;;;;;;;4.55;100.00;96084.34;4953485;28;105135;-63
2023/01/13 08:05:44;;;;;;;4.47;3.70;;;;;;;4.66;100.00;96079.16;4953173;28;104917;-63
2023/01/13 08:08:11;;;;;;;4.20;3.80;;;;;;;4.73;100.00;96089.59;4953667;28;102187;-63
2023/01/13 08:10:39;;;;;;;8.77;7.57;;;;;;;4.76;100.00;96095.22;4953139;28;102939;-63
2023/01/13 08:13:18;;;;;;;15.50;11.50;;;;;;;4.83;100.00;96088.06;4952993;28;105647;-63
2023/01/13 08:15:47;;;;;;;7.20;5.83;;;;;;;4.75;100.00;96098.09;4952639;28;101796;-63
2023/01/13 08:18:14;;;;;;;6.77;4.60;;;;;;;4.48;100.00;96113.38;4953453;28;104835;-64
2023/01/13 08:20:41;;;;;;;6.07;4.53;;;;;;;4.64;100.00;96104.13;4952662;28;103809;-63
2023/01/13 08:23:09;;;;;;;9.27;7.83;;;;;;;4.70;100.00;96111.91;4974035;28;101835;-63
2023/01/13 08:25:36;;;;;;;5.13;4.37;;;;;;;4.81;100.00;96105.13;4952710;28;103793;-64
2023/01/13 08:28:04;;;;;;;5.27;4.77;;;;;;;4.92;100.00;96093.84;4953450;28;101849;-63
2023/01/13 08:30:31;;;;;;;5.20;3.67;;;;;;;5.00;100.00;96090.88;4969581;28;105109;-63
2023/01/13 08:32:59;;;;;;;4.10;3.20;;;;;;;5.11;100.00;96113.84;4952460;28;105608;-63
2023/01/13 08:35:26;;;;;;;7.70;4.03;;;;;;;5.22;100.00;96115.72;4952912;28;101814;-63
2023/01/13 08:37:53;;;;;;;3.70;3.30;;;;;;;5.28;100.00;96109.56;4953233;28;104904;-63
2023/01/13 08:40:21;;;;;;;4.30;3.90;;;;;;;5.32;100.00;96110.72;4968822;28;105616;-63
2023/01/13 08:42:48;;;;;;;3.67;3.37;;;;;;;5.36;100.00;96119.78;4969459;28;101992;-63
2023/01/13 08:45:17;;;;;;;26.33;18.60;;;;;;;5.46;100.00;96114.78;4955520;28;105023;-63
2023/01/13 08:47:44;;;;;;;4.73;4.27;;;;;;;5.49;100.00;96106.41;4952121;28;102138;-63
2023/01/13 08:50:12;;;;;;;3.57;3.27;;;;;;;5.56;100.00;96122.97;4969415;28;104831;-63
2023/01/13 08:52:39;;;;;;;3.67;3.37;;;;;;;5.61;100.00;96128.34;4968705;28;105052;-63
2023/01/13 08:55:06;;;;;;;4.50;3.30;;;;;;;5.67;100.00;96130.09;4952782;28;101844;-63
2023/01/13 08:57:33;;;;;;;4.50;3.30;;;;;;;5.72;100.00;96125.75;4952830;28;104819;-63
2023/01/13 09:00:00;;;;;;;3.70;3.40;;;;;;;5.75;100.00;96122.66;4952137;28;103869;-63
2023/01/13 09:02:28;;;;;;;6.27;5.13;;;;;;;5.82;100.00;96117.28;4953030;28;101889;-63
2023/01/13 09:04:55;;;;;;;2.70;2.50;;;;;;;5.78;100.00;96110.84;4952972;28;104845;-63
2023/01/13 09:07:22;;;;;;;4.50;3.80;;;;;;;5.80;100.00;96129.91;4955546;28;104984;-63
2023/01/13 09:09:50;;;;;;;4.10;3.80;;;;;;;5.84;100.00;96136.38;4970246;28;102859;-63
2023/01/13 09:15:05;;;;;;;4.20;2.63;;;;;;;5.82;100.00;96139.22;4951565;28;101872;-63
2023/01/13 09:17:33;;;;;;;23.83;13.33;;;;;;;5.87;100.00;96133.25;4952537;28;104793;-63
2023/01/13 09:20:01;;;;;;;4.47;3.30;;;;;;;5.85;100.00;96141.38;4951077;28;105715;-63
2023/01/13 09:22:30;;;;;;;5.90;4.20;;;;;;;5.91;100.00;96142.31;4952436;28;102080;-63
2023/01/13 09:24:57;;;;;;;2.90;2.70;;;;;;;5.94;100.00;96133.97;4952910;28;104332;-63
2023/01/13 09:27:24;;;;;;;2.83;2.63;;;;;;;5.90;100.00;96146.00;4967997;28;105206;-63
2023/01/13 09:29:51;;;;;;;4.37;3.23;;;;;;;5.96;100.00;96134.53;4955971;28;101840;-63
2023/01/13 09:32:17;;;;;;;3.20;2.90;;;;;;;6.00;100.00;96127.78;4954829;28;105511;-63
2023/01/13 09:35:00;;;;;;;11.17;7.57;;;;;;;5.99;100.00;96134.06;4955826;28;101930;-63
2023/01/13 09:37:27;;;;;;;15.17;8.53;;;;;;;5.99;100.00;96115.59;4955964;28;103653;-63
2023/01/13 09:39:54;;;;;;;13.70;9.70;;;;;;;5.97;100.00;96122.94;4955021;28;105215;-63
2023/01/13 09:45:16;;;;;;;5.03;4.20;;;;;;;6.06;100.00;96106.53;4955745;28;105739;-63
2023/01/13 09:47:51;;;;;;;5.97;4.23;;;;;;;6.20;100.00;96115.03;4971439;28;105419;-63
2023/01/13 09:50:25;;;;;;;4.80;3.20;;;;;;;6.26;100.00;96122.03;4975533;28;102234;-63
2023/01/13 09:52:53;;;;;;;4.53;3.53;;;;;;;6.26;100.00;96122.84;4954688;28;104983;-63
2023/01/13 09:55:25;;;;;;;4.70;3.30;;;;;;;6.18;100.00;96136.41;4955628;28;101842;-63
2023/01/13 09:57:52;;;;;;;3.20;2.90;;;;;;;6.20;100.00;96122.94;4955744;28;104791;-63
2023/01/13 10:00:22;;;;;;;4.23;3.03;;;;;;;6.28;100.00;96119.97;4954840;28;105880;-63
2023/01/13 10:03:06;;;;;;;3.87;3.27;;;;;;;6.27;100.00;96111.25;4955263;28;101761;-63
2023/01/13 10:05:38;;;;;;;3.53;3.23;;;;;;;6.32;100.00;96113.22;4955520;28;104954;-63
2023/01/13 10:08:11;;;;;;;3.43;3.13;;;;;;;6.31;100.00;96106.31;4954669;28;105607;-63
2023/01/13 10:10:43;;;;;;;3.67;2.93;;;;;;;6.31;100.00;96104.47;4973389;28;101756;-63
2023/01/13 10:13:15;;;;;;;6.20;5.60;;;;;;;6.39;100.00;96098.06;4975947;28;102393;-64
2023/01/13 10:15:52;;;;;;;3.40;2.97;;;;;;;6.35;100.00;96102.19;4969249;28;102145;-63
2023/01/13 10:18:27;;;;;;;6.83;3.37;;;;;;;6.42;100.00;96101.03;4973188;28;102317;-64
2023/01/13 10:21:06;;;;;;;3.77;3.40;;;;;;;6.43;100.00;96092.06;4954597;28;104259;-63
2023/01/13 10:23:58;;;;;;;3.80;3.37;;;;;;;6.53;100.00;96094.13;4955055;28;101855;-63
2023/01/13 10:26:44;;;;;;;3.17;2.87;;;;;;;6.63;100.00;96099.63;4948434;28;105243;-63
2023/01/13 10:29:23;;;;;;;3.30;3.00;;;;;;;6.60;100.00;96089.53;4954505;28;104980;-63
2023/01/13 10:31:51;;;;;;;3.17;2.87;;;;;;;6.68;100.00;96083.88;4955188;28;101788;-63
2023/01/13 10:34:19;;;;;;;3.07;2.60;;;;;;;6.82;100.00;96093.16;4954850;28;106416;-63
2023/01/13 10:37:00;;;;;;;5.77;2.97;;;;;;;6.93;100.00;96092.31;4957743;28;105216;-63
2023/01/13 10:39:27;;;;;;;3.63;3.33;;;;;;;7.00;100.00;96104.38;4955151;28;105101;-63
2023/01/13 10:42:02;;;;;;;3.40;2.90;;;;;;;7.09;100.00;96096.88;4953554;28;105176;-63
2023/01/13 10:44:29;;;;;;;4.77;3.20;;;;;;;7.15;100.00;96080.84;4954073;28;101931;-63
2023/01/13 10:46:58;;;;;;;3.00;2.47;;;;;;;7.10;100.00;96069.38;4954942;28;103919;-63
2023/01/13 10:49:32;;;;;;;2.80;2.60;;;;;;;7.11;100.00;96066.50;4954242;28;104023;-63
2023/01/13 10:52:04;;;;;;;4.40;3.67;;;;;;;7.09;100.00;96050.06;4954785;28;101833;-63
2023/01/13 10:54:52;;;;;;;2.50;2.03;;;;;;;7.19;100.00;96052.91;4954729;28;104181;-63
2023/01/13 10:57:21;;;;;;;2.50;2.30;;;;;;;7.45;100.00;96051.50;4954004;28;105787;-63
2023/01/13 10:59:50;;;;;;;2.63;2.43;;;;;;;7.58;100.00;96045.91;4975696;28;102180;-63
2023/01/13 11:02:24;;;;;;;2.90;2.33;;;;;;;7.72;100.00;96048.00;4970131;28;105331;-63
2023/01/13 11:05:01;;;;;;;2.40;2.10;;;;;;;7.87;100.00;96042.13;4972393;28;101849;-64
2023/01/13 11:07:33;;;;;;;2.13;2.03;;;;;;;7.80;100.00;96038.88;4954501;28;103997;-64
2023/01/13 11:10:13;;;;;;;2.33;2.10;;;;;;;7.85;100.00;96033.66;4953662;28;104973;-64
2023/01/13 11:12:46;;;;;;;3.43;2.40;;;;;;;8.06;100.00;96022.28;4954499;28;101927;-64
2023/01/13 11:15:18;;;;;;;4.70;2.60;;;;;;;8.21;100.00;96026.00;4972011;28;102691;-64
2023/01/13 11:17:49;;;;;;;5.50;3.60;;;;;;;8.20;100.00;96023.59;4953624;28;105954;-64
2023/01/13 11:20:28;;;;;;;3.67;3.33;;;;;;;8.18;100.00;96030.97;4971956;28;101844;-64
2023/01/13 11:23:07;;;;;;;2.30;2.10;;;;;;;8.36;100.00;96023.56;4974658;28;103046;-64
2023/01/13 11:25:41;;;;;;;2.10;1.90;;;;;;;8.41;100.00;96025.47;4954215;28;102011;-64
2023/01/13 11:28:28;;;;;;;2.30;2.10;;;;;;;8.34;100.00;96036.22;4971961;28;102349;-64
2023/01/13 11:30:58;;;;;;;2.50;2.30;;;;;;;8.37;100.00;96034.94;4971425;28;102569;-64
2023/01/13 11:33:36;;;;;;;2.40;2.20;;;;;;;8.38;100.00;96033.91;4937489;28;101832;-64
2023/01/13 11:36:13;;;;;;;2.97;2.30;;;;;;;8.36;100.00;96039.47;4971266;28;102833;-64
2023/01/13 11:38:49;;;;;;;2.70;2.13;;;;;;;8.43;100.00;96018.88;4971141;28;102542;-64
2023/01/13 11:41:39;;;;;;;2.87;2.63;;;;;;;8.32;100.00;96021.63;4953613;28;101791;-64
2023/01/13 11:44:19;;;;;;;2.60;2.40;;;;;;;8.41;100.00;96038.72;4954005;28;105163;-64
2023/01/13 11:46:49;;;;;;;2.63;2.43;;;;;;;8.50;100.00;96030.09;4956541;28;102125;-64
2023/01/13 11:49:26;;;;;;;2.67;2.30;;;;;;;8.63;100.00;96034.22;4971292;28;102834;-64
2023/01/13 11:52:00;;;;;;;3.50;2.50;;;;;;;8.69;100.00;96038.53;4952840;28;103782;-64
2023/01/13 11:54:51;;;;;;;2.63;2.27;;;;;;;8.63;100.00;96031.59;4953536;28;102229;-64
2023/01/13 11:57:38;;;;;;;5.17;3.57;;;;;;;8.65;100.00;96025.00;4951527;28;105706;-64
2023/01/13 12:00:53;;;;;;;3.10;2.50;;;;;;;8.49;100.00;96047.03;4971084;28;102480;-64
2023/01/13 12:03:27;;;;;;;3.67;2.37;;;;;;;8.57;100.00;96048.47;4952533;28;102065;-64
2023/01/13 12:06:08;;;;;;;3.97;3.07;;;;;;;8.59;100.00;96033.94;4953678;28;104787;-64
2023/01/13 12:09:03;;;;;;;4.80;2.57;;;;;;;8.54;100.00;96030.41;4956245;28;103823;-64
2023/01/13 12:12:18;;;;;;;13.73;8.20;;;;;;;8.53;100.00;96042.88;4953447;28;105567;-63
2023/01/13 12:14:49;;;;;;;37.87;14.23;;;;;;;8.50;100.00;96030.09;4968950;28;105545;-63